createdAt,value
2023-01-29T00:00:15.631Z,99263.01
2023-01-29T00:03:03.997Z,99265.58
2023-01-29T00:05:32.247Z,99264.02
2023-01-29T00:08:00.221Z,99262.13
2023-01-29T00:10:28.134Z,99264.38
2023-01-29T00:12:56.103Z,99267.45
2023-01-29T00:15:24.009Z,99267.61
2023-01-29T00:17:52.115Z,99269.69
2023-01-29T00:20:20.166Z,99269.02
2023-01-29T00:22:48.135Z,99271.56
2023-01-29T00:25:16.193Z,99271.70
2023-01-29T00:27:44.826Z,99274.80
2023-01-29T00:30:13.641Z,99274.43
2023-01-29T00:33:01.548Z,99274.57
2023-01-29T00:35:29.629Z,99277.44
2023-01-29T00:37:58.793Z,99278.95
2023-01-29T00:40:27.011Z,99284.26
2023-01-29T00:43:14.258Z,99280.79
2023-01-29T00:45:42.262Z,99275.77
2023-01-29T00:48:10.218Z,99283.02
2023-01-29T00:50:38.210Z,99285.09
2023-01-29T00:53:07.094Z,99282.52
2023-01-29T00:55:35.001Z,99288.90
2023-01-29T00:58:03.103Z,99289.07
2023-01-29T01:00:31.173Z,99295.83
2023-01-29T01:03:08.085Z,99301.71
2023-01-29T01:05:39.231Z,99303.59
2023-01-29T01:08:27.345Z,99304.61
2023-01-29T01:11:03.812Z,99304.09
2023-01-29T01:13:33.540Z,99303.34
2023-01-29T01:16:01.519Z,99297.33
2023-01-29T01:18:30.937Z,99295.77
2023-01-29T01:20:59.733Z,99294.55
2023-01-29T01:23:36.042Z,99290.22
2023-01-29T01:26:09.599Z,99288.14
2023-01-29T01:28:37.569Z,99286.05
2023-01-29T01:31:10.795Z,99286.75
2023-01-29T01:33:59.111Z,99282.45
2023-01-29T01:36:27.190Z,99280.40
2023-01-29T01:38:55.339Z,99285.42
2023-01-29T01:41:24.147Z,99289.88
2023-01-29T01:43:57.785Z,99285.54
2023-01-29T01:46:29.039Z,99279.64
2023-01-29T01:49:05.952Z,99276.88
2023-01-29T01:51:39.233Z,99273.94
2023-01-29T01:54:28.649Z,99272.02
2023-01-29T01:57:09.603Z,99270.33
2023-01-29T01:59:40.506Z,99261.02
2023-01-29T02:02:27.055Z,99261.72
2023-01-29T02:05:13.731Z,99251.02
2023-01-29T02:08:02.907Z,99250.68
2023-01-29T02:10:37.815Z,99249.14
2023-01-29T02:13:07.493Z,99260.54
2023-01-29T02:15:35.882Z,99265.52
2023-01-29T02:18:04.011Z,99262.05
2023-01-29T02:20:32.395Z,99255.45
2023-01-29T02:23:19.054Z,99247.11
2023-01-29T02:26:00.323Z,99248.77
2023-01-29T02:29:19.891Z,99245.27
2023-01-29T02:31:58.092Z,99233.52
2023-01-29T02:34:59.700Z,99236.27
2023-01-29T02:37:36.430Z,99239.73
2023-01-29T02:40:38.627Z,99236.15
2023-01-29T02:43:16.583Z,99243.24
2023-01-29T02:46:14.591Z,99246.70
2023-01-29T02:49:07.124Z,99253.97
2023-01-29T02:51:44.900Z,99248.30
2023-01-29T02:54:20.462Z,99263.09
2023-01-29T02:57:04.661Z,99258.75
2023-01-29T02:59:42.433Z,99264.27
2023-01-29T03:02:20.221Z,99268.56
2023-01-29T03:04:55.788Z,99262.69
2023-01-29T03:07:42.708Z,99264.05
2023-01-29T03:10:47.191Z,99258.38
2023-01-29T03:13:18.647Z,99259.20
2023-01-29T03:15:54.996Z,99265.55
2023-01-29T03:18:46.374Z,99268.83
2023-01-29T03:21:41.425Z,99279.15
2023-01-29T03:24:32.274Z,99282.77
2023-01-29T03:27:23.643Z,99284.34
2023-01-29T03:30:13.609Z,99277.80
2023-01-29T03:33:03.577Z,99276.39
2023-01-29T03:35:39.678Z,99275.51
2023-01-29T03:38:11.451Z,99276.50
2023-01-29T03:40:50.717Z,99269.46
2023-01-29T03:43:39.948Z,99270.17
2023-01-29T03:46:19.152Z,99267.44
2023-01-29T03:49:27.344Z,99268.95
2023-01-29T03:52:00.675Z,99264.95
2023-01-29T03:55:01.037Z,99262.20
2023-01-29T03:57:41.427Z,99259.77
2023-01-29T04:00:23.978Z,99259.10
2023-01-29T04:03:20.625Z,99253.92
2023-01-29T04:06:10.146Z,99252.41
2023-01-29T04:09:14.588Z,99255.66
2023-01-29T04:11:50.242Z,99256.17
2023-01-29T04:14:18.811Z,99254.80
2023-01-29T04:16:51.893Z,99250.34
2023-01-29T04:19:39.324Z,99245.85
2023-01-29T04:22:16.052Z,99241.55
2023-01-29T04:24:44.122Z,99239.67
2023-01-29T04:27:21.509Z,99236.06
2023-01-29T04:30:08.699Z,99231.06
2023-01-29T04:32:48.128Z,99219.88
2023-01-29T04:35:16.017Z,99207.70
2023-01-29T04:38:05.417Z,99203.43
2023-01-29T04:41:12.057Z,99198.98
2023-01-29T04:43:59.819Z,99200.20
2023-01-29T04:46:36.233Z,99198.13
2023-01-29T04:49:18.036Z,99186.09
2023-01-29T04:52:05.190Z,99181.15
2023-01-29T04:55:08.552Z,99180.67
2023-01-29T04:57:58.272Z,99183.81
2023-01-29T05:00:35.625Z,99175.41
2023-01-29T05:03:04.523Z,99173.89
2023-01-29T05:05:33.000Z,99177.17
2023-01-29T05:08:01.547Z,99175.66
2023-01-29T05:10:29.601Z,99183.09
2023-01-29T05:13:03.792Z,99187.94
2023-01-29T05:15:44.858Z,99188.61
2023-01-29T05:18:13.395Z,99189.13
2023-01-29T05:20:44.291Z,99196.35
2023-01-29T05:23:20.827Z,99193.24
2023-01-29T05:25:50.884Z,99193.05
2023-01-29T05:28:19.291Z,99197.70
2023-01-29T05:30:53.201Z,99199.25
2023-01-29T05:33:25.939Z,99203.90
2023-01-29T05:35:55.533Z,99199.77
2023-01-29T05:38:23.569Z,99194.95
2023-01-29T05:40:51.600Z,99190.29
2023-01-29T05:43:24.975Z,99185.27
2023-01-29T05:46:01.092Z,99188.67
2023-01-29T05:48:31.507Z,99192.95
2023-01-29T05:51:04.471Z,99198.11
2023-01-29T05:53:33.469Z,99202.58
2023-01-29T05:56:03.103Z,99200.52
2023-01-29T05:58:32.420Z,99204.48
2023-01-29T06:01:15.826Z,99198.83
2023-01-29T06:03:44.791Z,99197.99
2023-01-29T06:06:13.254Z,99203.69
2023-01-29T06:08:41.310Z,99206.63
2023-01-29T06:11:12.231Z,99204.25
2023-01-29T06:13:41.083Z,99207.86
2023-01-29T06:16:10.575Z,99208.02
2023-01-29T06:18:39.524Z,99205.94
2023-01-29T06:21:11.220Z,99206.98
2023-01-29T06:23:40.290Z,99208.70
2023-01-29T06:26:12.133Z,99212.14
2023-01-29T06:28:41.039Z,99219.73
2023-01-29T06:31:30.443Z,99220.92
2023-01-29T06:33:56.959Z,99220.06
2023-01-29T06:36:25.044Z,99218.88
2023-01-29T06:38:52.934Z,99219.92
2023-01-29T06:41:25.499Z,99214.23
2023-01-29T06:43:53.659Z,99210.10
2023-01-29T06:46:22.763Z,99207.54
2023-01-29T06:48:50.862Z,99202.36
2023-01-29T06:51:18.847Z,99212.69
2023-01-29T06:53:47.018Z,99218.71
2023-01-29T06:56:15.182Z,99217.50
2023-01-29T06:58:43.811Z,99217.84
2023-01-29T07:01:17.486Z,99215.77
2023-01-29T07:03:53.211Z,99216.30
2023-01-29T07:06:21.233Z,99216.98
2023-01-29T07:08:49.003Z,99221.64
2023-01-29T07:11:17.338Z,99221.44
2023-01-29T07:13:45.147Z,99224.02
2023-01-29T07:16:13.194Z,99224.02
2023-01-29T07:18:41.176Z,99228.32
2023-01-29T07:21:09.172Z,99228.83
2023-01-29T07:23:37.127Z,99236.55
2023-01-29T07:26:06.900Z,99235.99
2023-01-29T07:28:39.614Z,99235.09
2023-01-29T07:31:08.795Z,99231.95
2023-01-29T07:33:36.712Z,99236.80
2023-01-29T07:36:09.386Z,99234.94
2023-01-29T07:38:37.537Z,99239.44
2023-01-29T07:41:05.624Z,99241.70
2023-01-29T07:43:33.708Z,99241.71
2023-01-29T07:46:03.843Z,99241.73
2023-01-29T07:48:31.971Z,99242.08
2023-01-29T07:51:00.003Z,99242.91
2023-01-29T07:53:29.355Z,99245.83
2023-01-29T07:55:57.800Z,99252.86
2023-01-29T07:58:25.796Z,99259.42
2023-01-29T08:00:53.751Z,99262.87
2023-01-29T08:03:21.713Z,99267.17
2023-01-29T08:05:50.215Z,99272.20
2023-01-29T08:08:19.486Z,99273.41
2023-01-29T08:10:47.373Z,99272.39
2023-01-29T08:13:15.447Z,99271.88
2023-01-29T08:15:45.241Z,99276.52
2023-01-29T08:18:14.961Z,99274.63
2023-01-29T08:20:42.852Z,99271.00
2023-01-29T08:23:15.091Z,99273.73
2023-01-29T08:25:43.355Z,99280.27
2023-01-29T08:28:12.502Z,99279.83
2023-01-29T08:30:40.942Z,99283.33
2023-01-29T08:33:08.889Z,99282.02
2023-01-29T08:35:37.853Z,99286.73
2023-01-29T08:38:05.936Z,99289.54
2023-01-29T08:40:35.525Z,99289.57
2023-01-29T08:43:06.950Z,99293.90
2023-01-29T08:45:39.848Z,99291.66
2023-01-29T08:48:08.392Z,99288.91
2023-01-29T08:50:37.513Z,99288.49
2023-01-29T08:53:08.109Z,99287.41
2023-01-29T08:55:37.618Z,99282.45
2023-01-29T08:58:08.385Z,99284.70
2023-01-29T09:00:36.680Z,99283.13
2023-01-29T09:03:05.122Z,99283.45
2023-01-29T09:05:34.890Z,99272.44
2023-01-29T09:08:03.706Z,99265.23
2023-01-29T09:10:32.132Z,99257.16
2023-01-29T09:13:00.179Z,99247.02
2023-01-29T09:15:28.336Z,99238.73
2023-01-29T09:17:56.266Z,99236.86
2023-01-29T09:20:24.243Z,99233.27
2023-01-29T09:22:53.819Z,99237.42
2023-01-29T09:25:21.788Z,99244.86
2023-01-29T09:27:49.757Z,99245.02
2023-01-29T09:30:19.144Z,99250.34
2023-01-29T09:32:53.487Z,99252.34
2023-01-29T09:35:23.939Z,99258.69
2023-01-29T09:37:52.394Z,99261.58
2023-01-29T09:40:52.752Z,99264.34
2023-01-29T09:43:26.303Z,99265.34
2023-01-29T09:46:24.975Z,99256.03
2023-01-29T09:49:04.044Z,99255.15
2023-01-29T09:51:39.558Z,99251.52
2023-01-29T09:54:14.956Z,99249.45
2023-01-29T09:56:46.070Z,99245.84
2023-01-29T09:59:18.636Z,99246.02
2023-01-29T10:02:21.264Z,99239.98
2023-01-29T10:05:23.688Z,99230.67
2023-01-29T10:07:58.064Z,99210.33
2023-01-29T10:10:45.759Z,99211.39
2023-01-29T10:13:51.398Z,99207.96
2023-01-29T10:16:38.297Z,99201.41
2023-01-29T10:19:18.434Z,99209.35
2023-01-29T10:21:58.570Z,99192.45
2023-01-29T10:24:39.362Z,99181.93
2023-01-29T10:27:16.656Z,99175.56
2023-01-29T10:29:47.438Z,99172.81
2023-01-29T10:32:21.266Z,99169.89
2023-01-29T10:35:00.059Z,99158.16
2023-01-29T10:37:41.433Z,99159.89
2023-01-29T10:40:22.604Z,99151.59
2023-01-29T10:43:43.279Z,99144.52
2023-01-29T10:46:34.399Z,99137.98
2023-01-29T10:49:14.691Z,99135.22
2023-01-29T10:52:10.027Z,99127.79
2023-01-29T10:54:49.379Z,99121.89
2023-01-29T10:57:38.717Z,99115.05
2023-01-29T11:00:31.369Z,99118.14
2023-01-29T11:03:29.437Z,99115.63
2023-01-29T11:06:19.101Z,99103.19
2023-01-29T11:09:01.594Z,99096.05
2023-01-29T11:11:56.715Z,99094.19
2023-01-29T11:14:28.879Z,99096.39
2023-01-29T11:16:57.032Z,99084.27
2023-01-29T11:19:42.313Z,99075.20
2023-01-29T11:22:20.116Z,99071.40
2023-01-29T11:25:10.168Z,99073.20
2023-01-29T11:27:56.686Z,99069.66
2023-01-29T11:30:41.388Z,99063.17
2023-01-29T11:33:30.480Z,99071.79
2023-01-29T11:35:59.185Z,99064.58
2023-01-29T11:38:29.726Z,99058.82
2023-01-29T11:41:08.256Z,99056.48
2023-01-29T11:43:36.229Z,99057.59
2023-01-29T11:46:11.779Z,99058.33
2023-01-29T11:48:44.579Z,99060.98
2023-01-29T11:51:22.803Z,99061.34
2023-01-29T11:53:55.900Z,99063.14
2023-01-29T11:56:39.401Z,99059.91
2023-01-29T11:59:37.295Z,99061.88
2023-01-29T12:02:20.216Z,99062.66
2023-01-29T12:04:48.984Z,99067.66
2023-01-29T12:07:19.026Z,99056.05
2023-01-29T12:09:56.146Z,99048.89
2023-01-29T12:12:33.208Z,99043.16
2023-01-29T12:15:25.234Z,99040.23
2023-01-29T12:18:06.481Z,99045.02
2023-01-29T12:20:50.617Z,99046.72
2023-01-29T12:23:21.637Z,99038.98
2023-01-29T12:26:06.714Z,99024.73
2023-01-29T12:28:39.617Z,99023.39
2023-01-29T12:31:29.441Z,99023.39
2023-01-29T12:34:39.246Z,99021.11
2023-01-29T12:37:37.006Z,99015.09
2023-01-29T12:40:25.436Z,99014.23
2023-01-29T12:42:58.939Z,99018.42
2023-01-29T12:45:29.693Z,99014.80
2023-01-29T12:48:03.126Z,99013.70
2023-01-29T12:50:36.684Z,99009.91
2023-01-29T12:53:34.170Z,99001.48
2023-01-29T12:56:28.848Z,98998.55
2023-01-29T12:59:01.759Z,98995.27
2023-01-29T13:01:47.116Z,98991.17
2023-01-29T13:04:25.841Z,98995.52
2023-01-29T13:07:10.069Z,98992.76
2023-01-29T13:09:46.379Z,98991.35
2023-01-29T13:12:20.822Z,98990.02
2023-01-29T13:15:03.241Z,98983.32
2023-01-29T13:17:40.314Z,98978.23
2023-01-29T13:20:34.002Z,98972.29
2023-01-29T13:23:18.244Z,98973.52
2023-01-29T13:25:46.256Z,98973.67
2023-01-29T13:28:24.417Z,98974.23
2023-01-29T13:31:11.221Z,98973.17
2023-01-29T13:33:42.041Z,98975.24
2023-01-29T13:36:22.864Z,98972.81
2023-01-29T13:39:00.327Z,98967.95
2023-01-29T13:41:42.587Z,98963.21
2023-01-29T13:44:29.828Z,98957.84
2023-01-29T13:47:01.853Z,98949.86
2023-01-29T13:49:47.432Z,98946.33
2023-01-29T13:52:30.271Z,98936.47
2023-01-29T13:55:02.099Z,98931.52
2023-01-29T13:57:40.069Z,98933.89
2023-01-29T14:00:33.939Z,98935.09
2023-01-29T14:03:01.783Z,98936.87
2023-01-29T14:05:30.630Z,98941.55
2023-01-29T14:07:59.683Z,98940.21
2023-01-29T14:10:30.476Z,98936.40
2023-01-29T14:13:01.524Z,98933.89
2023-01-29T14:15:32.342Z,98935.66
2023-01-29T14:18:03.031Z,98932.20
2023-01-29T14:20:45.148Z,98928.39
2023-01-29T14:23:43.493Z,98932.02
2023-01-29T14:26:48.424Z,98929.22
2023-01-29T14:29:32.499Z,98921.61
2023-01-29T14:32:19.435Z,98925.22
2023-01-29T14:34:55.672Z,98931.45
2023-01-29T14:37:40.845Z,98929.87
2023-01-29T14:40:11.803Z,98931.59
2023-01-29T14:42:50.014Z,98932.59
2023-01-29T14:45:36.372Z,98933.04
2023-01-29T14:48:10.518Z,98940.57
2023-01-29T14:51:13.462Z,98940.80
2023-01-29T14:53:50.675Z,98936.92
2023-01-29T14:56:40.726Z,98936.61
2023-01-29T14:59:29.183Z,98936.34
2023-01-29T15:01:58.466Z,98936.63
2023-01-29T15:04:41.305Z,98934.45
2023-01-29T15:07:12.285Z,98928.63
2023-01-29T15:09:49.707Z,98928.84
2023-01-29T15:12:40.072Z,98930.25
2023-01-29T15:15:27.293Z,98922.52
2023-01-29T15:17:58.626Z,98920.43
2023-01-29T15:20:38.307Z,98925.08
2023-01-29T15:23:27.538Z,98928.88
2023-01-29T15:26:03.369Z,98923.69
2023-01-29T15:28:34.145Z,98922.13
2023-01-29T15:31:06.001Z,98916.28
2023-01-29T15:33:38.720Z,98916.44
2023-01-29T15:36:08.718Z,98918.52
2023-01-29T15:38:36.959Z,98917.64
2023-01-29T15:41:18.859Z,98915.53
2023-01-29T15:43:49.600Z,98920.54
2023-01-29T15:46:40.176Z,98913.48
2023-01-29T15:49:11.648Z,98902.63
2023-01-29T15:51:39.875Z,98902.64
2023-01-29T15:54:15.668Z,98896.97
2023-01-29T15:56:51.600Z,98896.30
2023-01-29T15:59:24.844Z,98889.58
2023-01-29T16:01:54.429Z,98886.48
2023-01-29T16:04:27.035Z,98888.88
2023-01-29T16:06:56.477Z,98887.32
2023-01-29T16:09:26.497Z,98886.63
2023-01-29T16:11:58.864Z,98885.23
2023-01-29T16:14:28.662Z,98882.34
2023-01-29T16:16:56.857Z,98878.05
2023-01-29T16:19:28.028Z,98875.98
2023-01-29T16:22:06.579Z,98873.94
2023-01-29T16:24:37.056Z,98873.41
2023-01-29T16:27:13.679Z,98869.80
2023-01-29T16:29:41.797Z,98871.00
2023-01-29T16:32:13.889Z,98864.12
2023-01-29T16:34:45.468Z,98861.69
2023-01-29T16:37:27.996Z,98865.66
2023-01-29T16:39:56.595Z,98874.27
2023-01-29T16:42:29.729Z,98876.00
2023-01-29T16:44:57.605Z,98874.10
2023-01-29T16:47:31.681Z,98870.66
2023-01-29T16:50:19.737Z,98877.55
2023-01-29T16:53:12.768Z,98880.14
2023-01-29T16:55:45.652Z,98880.83
2023-01-29T16:58:18.142Z,98877.55
2023-01-29T17:00:50.948Z,98879.11
2023-01-29T17:03:20.180Z,98877.04
2023-01-29T17:05:51.055Z,98878.41
2023-01-29T17:08:30.364Z,98874.44
2023-01-29T17:10:59.493Z,98877.89
2023-01-29T17:13:31.194Z,98877.55
2023-01-29T17:16:14.021Z,98870.64
2023-01-29T17:18:42.133Z,98871.52
2023-01-29T17:21:10.069Z,98869.63
2023-01-29T17:23:37.976Z,98864.98
2023-01-29T17:26:10.117Z,98861.17
2023-01-29T17:28:38.819Z,98861.36
2023-01-29T17:31:10.122Z,98858.08
2023-01-29T17:33:43.392Z,98854.29
2023-01-29T17:36:13.338Z,98849.97
2023-01-29T17:38:41.560Z,98849.11
2023-01-29T17:41:20.020Z,98850.15
2023-01-29T17:43:47.887Z,98842.06
2023-01-29T17:46:17.247Z,98836.02
2023-01-29T17:48:45.977Z,98833.63
2023-01-29T17:51:16.428Z,98832.06
2023-01-29T17:53:46.424Z,98831.71
2023-01-29T17:56:22.681Z,98831.19
2023-01-29T17:58:50.688Z,98826.86
2023-01-29T18:01:18.644Z,98823.42
2023-01-29T18:03:46.869Z,98822.21
2023-01-29T18:06:28.510Z,98829.98
2023-01-29T18:08:56.801Z,98832.38
2023-01-29T18:11:26.607Z,98828.60
2023-01-29T18:13:56.012Z,98825.52
2023-01-29T18:16:25.496Z,98823.27
2023-01-29T18:18:53.628Z,98824.13
2023-01-29T18:21:22.784Z,98821.02
2023-01-29T18:23:50.779Z,98820.35
2023-01-29T18:26:18.729Z,98817.05
2023-01-29T18:28:46.743Z,98815.49
2023-01-29T18:31:14.959Z,98819.29
2023-01-29T18:33:42.923Z,98817.21
2023-01-29T18:36:11.298Z,98816.88
2023-01-29T18:38:39.407Z,98812.59
2023-01-29T18:41:12.308Z,98815.15
2023-01-29T18:43:41.878Z,98815.83
2023-01-29T18:46:10.477Z,98810.14
2023-01-29T18:48:39.908Z,98809.97
2023-01-29T18:51:09.084Z,98804.29
2023-01-29T18:53:37.071Z,98801.89
2023-01-29T18:56:06.602Z,98803.27
2023-01-29T18:58:36.619Z,98800.34
2023-01-29T19:01:09.673Z,98797.25
2023-01-29T19:03:41.932Z,98798.28
2023-01-29T19:06:11.591Z,98788.13
2023-01-29T19:08:41.151Z,98797.24
2023-01-29T19:11:09.772Z,98790.01
2023-01-29T19:13:38.544Z,98789.13
2023-01-29T19:16:09.129Z,98783.27
2023-01-29T19:18:37.154Z,98784.30
2023-01-29T19:21:12.328Z,98781.02
2023-01-29T19:23:43.061Z,98777.05
2023-01-29T19:26:11.696Z,98775.16
2023-01-29T19:28:39.701Z,98773.78
2023-01-29T19:31:09.539Z,98778.77
2023-01-29T19:33:39.032Z,98781.02
2023-01-29T19:36:07.775Z,98781.70
2023-01-29T19:38:38.641Z,98778.79
2023-01-29T19:41:06.745Z,98778.27
2023-01-29T19:43:34.837Z,98776.58
2023-01-29T19:46:02.857Z,98772.61
2023-01-29T19:48:30.863Z,98777.96
2023-01-29T19:51:09.660Z,98775.23
2023-01-29T19:53:39.645Z,98768.85
2023-01-29T19:56:10.577Z,98770.91
2023-01-29T19:58:38.667Z,98768.66
2023-01-29T20:01:13.874Z,98760.56
2023-01-29T20:03:42.251Z,98760.56
2023-01-29T20:06:10.106Z,98761.59
2023-01-29T20:08:37.974Z,98759.52
2023-01-29T20:11:05.851Z,98761.40
2023-01-29T20:13:34.037Z,98756.23
2023-01-29T20:16:04.071Z,98757.27
2023-01-29T20:18:32.142Z,98755.89
2023-01-29T20:21:09.863Z,98752.63
2023-01-29T20:23:40.086Z,98752.81
2023-01-29T20:26:11.585Z,98755.74
2023-01-29T20:28:39.604Z,98751.61
2023-01-29T20:31:10.126Z,98753.67
2023-01-29T20:33:40.599Z,98751.09
2023-01-29T20:36:10.957Z,98752.47
2023-01-29T20:38:39.430Z,98750.41
2023-01-29T20:41:16.774Z,98752.64
2023-01-29T20:43:46.109Z,98751.27
2023-01-29T20:46:14.257Z,98746.64
2023-01-29T20:48:42.328Z,98740.28
2023-01-29T20:51:15.675Z,98738.21
2023-01-29T20:53:46.309Z,98734.77
2023-01-29T20:56:16.431Z,98732.55
2023-01-29T20:58:45.082Z,98730.64
2023-01-29T21:01:17.013Z,98728.05
2023-01-29T21:03:46.371Z,98722.89
2023-01-29T21:06:15.851Z,98712.90
2023-01-29T21:08:44.018Z,98709.29
2023-01-29T21:11:12.055Z,98700.85
2023-01-29T21:13:40.080Z,98695.69
2023-01-29T21:16:10.869Z,98700.16
2023-01-29T21:18:38.943Z,98695.52
2023-01-29T21:21:06.953Z,98686.74
2023-01-29T21:23:34.802Z,98683.81
2023-01-29T21:26:04.820Z,98681.06
2023-01-29T21:28:32.933Z,98677.63
2023-01-29T21:31:10.117Z,98675.05
2023-01-29T21:33:38.486Z,98673.50
2023-01-29T21:36:06.866Z,98672.63
2023-01-29T21:38:34.690Z,98671.27
2023-01-29T21:41:11.689Z,98668.34
2023-01-29T21:43:40.993Z,98662.32
2023-01-29T21:46:12.161Z,98658.35
2023-01-29T21:48:40.472Z,98655.59
2023-01-29T21:51:08.958Z,98653.35
2023-01-29T21:53:37.415Z,98654.21
2023-01-29T21:56:06.304Z,98650.07
2023-01-29T21:58:34.220Z,98647.14
2023-01-29T22:01:36.001Z,98639.90
2023-01-29T22:03:50.143Z,98639.75
2023-01-29T22:06:18.336Z,98636.15
2023-01-29T22:08:49.231Z,98636.14
2023-01-29T22:11:17.986Z,98632.20
2023-01-29T22:13:46.057Z,98628.77
2023-01-29T22:16:13.950Z,98626.88
2023-01-29T22:18:41.895Z,98622.58
2023-01-29T22:21:09.746Z,98610.19
2023-01-29T22:23:38.182Z,98606.93
2023-01-29T22:26:07.664Z,98601.95
2023-01-29T22:28:35.501Z,98600.39
2023-01-29T22:31:05.068Z,98593.33
2023-01-29T22:33:33.640Z,98588.69
2023-01-29T22:36:01.736Z,98585.27
2023-01-29T22:38:30.167Z,98578.39
2023-01-29T22:41:00.545Z,98576.84
2023-01-29T22:43:29.375Z,98576.84
2023-01-29T22:45:57.662Z,98572.36
2023-01-29T22:48:28.098Z,98570.48
2023-01-29T22:51:13.111Z,98564.63
2023-01-29T22:54:02.494Z,98560.66
2023-01-29T22:56:31.274Z,98554.98
2023-01-29T22:59:00.905Z,98546.90
2023-01-29T23:01:31.404Z,98546.58
2023-01-29T23:03:59.419Z,98545.89
2023-01-29T23:06:27.391Z,98538.66
2023-01-29T23:08:55.383Z,98539.69
2023-01-29T23:11:23.972Z,98538.15
2023-01-29T23:13:55.619Z,98537.29
2023-01-29T23:16:27.769Z,98533.69
2023-01-29T23:18:57.384Z,98529.39
2023-01-29T23:21:45.483Z,98521.65
2023-01-29T23:24:13.465Z,98517.52
2023-01-29T23:26:59.852Z,98514.09
2023-01-29T23:29:28.242Z,98502.23
2023-01-29T23:31:56.264Z,98494.50
2023-01-29T23:34:24.396Z,98488.30
2023-01-29T23:36:52.358Z,98480.91
2023-01-29T23:39:20.638Z,98474.72
2023-01-29T23:41:48.587Z,98466.99
2023-01-29T23:44:16.541Z,98460.80
2023-01-29T23:46:44.581Z,98457.89
2023-01-29T23:49:13.284Z,98456.00
2023-01-29T23:51:41.239Z,98450.67
2023-01-29T23:54:09.137Z,98438.98
2023-01-29T23:56:36.993Z,98434.02
2023-01-29T23:59:04.976Z,98433.16
